sensor_id;sensor_type;location;lat;lon;timestamp;temperature;humidity
45685;DHT22;46836;48.388;16.210;2022-12-18T00:01:24;-1.60;99.90
45685;DHT22;46836;48.388;16.210;2022-12-18T00:03:53;-1.70;99.90
45685;DHT22;46836;48.388;16.210;2022-12-18T00:06:22;-1.70;99.90
45685;DHT22;46836;48.388;16.210;2022-12-18T00:08:49;-1.80;99.90
45685;DHT22;46836;48.388;16.210;2022-12-18T00:11:18;-1.80;99.90
45685;DHT22;46836;48.388;16.210;2022-12-18T00:13:47;-1.90;99.90
45685;DHT22;46836;48.388;16.210;2022-12-18T00:16:18;-2.10;99.90
45685;DHT22;46836;48.388;16.210;2022-12-18T00:18:52;-2.20;99.90
45685;DHT22;46836;48.388;16.210;2022-12-18T00:21:20;-2.30;99.90
45685;DHT22;46836;48.388;16.210;2022-12-18T00:23:50;-2.40;99.90
45685;DHT22;46836;48.388;16.210;2022-12-18T00:26:20;-2.40;99.90
45685;DHT22;46836;48.388;16.210;2022-12-18T00:28:49;-2.50;99.90
45685;DHT22;46836;48.388;16.210;2022-12-18T00:31:19;-2.50;99.90
45685;DHT22;46836;48.388;16.210;2022-12-18T00:33:46;-2.50;99.90
45685;DHT22;46836;48.388;16.210;2022-12-18T00:36:22;-2.50;99.90
45685;DHT22;46836;48.388;16.210;2022-12-18T00:38:49;-2.60;99.90
45685;DHT22;46836;48.388;16.210;2022-12-18T00:41:17;-2.60;99.90
45685;DHT22;46836;48.388;16.210;2022-12-18T00:44:07;-2.50;99.90
45685;DHT22;46836;48.388;16.210;2022-12-18T00:46:34;-2.50;99.90
45685;DHT22;46836;48.388;16.210;2022-12-18T00:49:02;-2.50;99.90
45685;DHT22;46836;48.388;16.210;2022-12-18T00:51:29;-2.50;99.90
45685;DHT22;46836;48.388;16.210;2022-12-18T00:53:56;-2.50;99.90
45685;DHT22;46836;48.388;16.210;2022-12-18T00:56:23;-2.50;99.90
45685;DHT22;46836;48.388;16.210;2022-12-18T00:58:51;-2.50;99.90
45685;DHT22;46836;48.388;16.210;2022-12-18T01:01:18;-2.50;99.90
45685;DHT22;46836;48.388;16.210;2022-12-18T01:03:45;-2.50;99.90
45685;DHT22;46836;48.388;16.210;2022-12-18T01:06:14;-2.60;99.90
45685;DHT22;46836;48.388;16.210;2022-12-18T01:08:41;-2.60;99.90
45685;DHT22;46836;48.388;16.210;2022-12-18T01:11:13;-2.70;99.90
45685;DHT22;46836;48.388;16.210;2022-12-18T01:13:40;-2.70;99.90
45685;DHT22;46836;48.388;16.210;2022-12-18T01:16:08;-2.70;99.90
45685;DHT22;46836;48.388;16.210;2022-12-18T01:18:35;-2.70;99.90
45685;DHT22;46836;48.388;16.210;2022-12-18T01:21:07;-2.80;99.90
45685;DHT22;46836;48.388;16.210;2022-12-18T01:23:35;-2.80;99.90
45685;DHT22;46836;48.388;16.210;2022-12-18T01:26:08;-2.80;99.90
45685;DHT22;46836;48.388;16.210;2022-12-18T01:28:36;-2.90;99.90
45685;DHT22;46836;48.388;16.210;2022-12-18T01:31:11;-3.00;99.90
45685;DHT22;46836;48.388;16.210;2022-12-18T01:33:39;-3.00;99.90
45685;DHT22;46836;48.388;16.210;2022-12-18T01:36:07;-3.00;99.90
45685;DHT22;46836;48.388;16.210;2022-12-18T01:38:34;-3.10;99.90
45685;DHT22;46836;48.388;16.210;2022-12-18T01:41:02;-3.20;99.90
45685;DHT22;46836;48.388;16.210;2022-12-18T01:43:46;-3.20;99.90
45685;DHT22;46836;48.388;16.210;2022-12-18T01:46:14;-3.20;99.90
45685;DHT22;46836;48.388;16.210;2022-12-18T01:48:41;-3.30;99.90
45685;DHT22;46836;48.388;16.210;2022-12-18T01:51:10;-3.30;99.90
45685;DHT22;46836;48.388;16.210;2022-12-18T01:53:39;-3.30;99.90
45685;DHT22;46836;48.388;16.210;2022-12-18T01:56:10;-3.30;99.90
45685;DHT22;46836;48.388;16.210;2022-12-18T01:59:01;-3.30;99.90
45685;DHT22;46836;48.388;16.210;2022-12-18T02:01:30;-3.30;99.90
45685;DHT22;46836;48.388;16.210;2022-12-18T02:06:53;-3.30;99.90
45685;DHT22;46836;48.388;16.210;2022-12-18T02:09:28;-3.30;99.90
45685;DHT22;46836;48.388;16.210;2022-12-18T02:12:24;-3.40;99.90
45685;DHT22;46836;48.388;16.210;2022-12-18T02:14:57;-3.50;99.90
45685;DHT22;46836;48.388;16.210;2022-12-18T02:17:50;-3.50;99.90
45685;DHT22;46836;48.388;16.210;2022-12-18T02:20:40;-3.60;99.90
45685;DHT22;46836;48.388;16.210;2022-12-18T02:28:35;-3.70;99.90
45685;DHT22;46836;48.388;16.210;2022-12-18T02:31:05;-3.70;99.90
45685;DHT22;46836;48.388;16.210;2022-12-18T02:33:36;-3.70;99.90
45685;DHT22;46836;48.388;16.210;2022-12-18T02:36:05;-3.80;99.90
45685;DHT22;46836;48.388;16.210;2022-12-18T02:38:33;-3.80;99.90
45685;DHT22;46836;48.388;16.210;2022-12-18T02:41:02;-3.80;99.90
45685;DHT22;46836;48.388;16.210;2022-12-18T02:43:30;-3.80;99.90
45685;DHT22;46836;48.388;16.210;2022-12-18T02:45:59;-3.90;99.90
45685;DHT22;46836;48.388;16.210;2022-12-18T02:48:33;-3.90;99.90
45685;DHT22;46836;48.388;16.210;2022-12-18T02:51:08;-3.80;99.90
45685;DHT22;46836;48.388;16.210;2022-12-18T02:53:44;-3.80;99.90
45685;DHT22;46836;48.388;16.210;2022-12-18T02:56:17;-3.80;99.90
45685;DHT22;46836;48.388;16.210;2022-12-18T02:59:08;-3.80;99.90
45685;DHT22;46836;48.388;16.210;2022-12-18T03:01:43;-3.90;99.90
45685;DHT22;46836;48.388;16.210;2022-12-18T03:05:07;-3.90;99.90
45685;DHT22;46836;48.388;16.210;2022-12-18T03:07:11;-3.90;99.90
45685;DHT22;46836;48.388;16.210;2022-12-18T03:09:44;-3.90;99.90
45685;DHT22;46836;48.388;16.210;2022-12-18T03:12:20;-4.00;99.90
45685;DHT22;46836;48.388;16.210;2022-12-18T03:17:33;-4.20;99.90
45685;DHT22;46836;48.388;16.210;2022-12-18T03:20:12;-4.20;99.90
45685;DHT22;46836;48.388;16.210;2022-12-18T03:22:43;-4.30;99.90
45685;DHT22;46836;48.388;16.210;2022-12-18T03:25:13;-4.30;99.90
45685;DHT22;46836;48.388;16.210;2022-12-18T03:27:46;-4.30;99.90
45685;DHT22;46836;48.388;16.210;2022-12-18T03:30:15;-4.30;99.90
45685;DHT22;46836;48.388;16.210;2022-12-18T03:32:48;-4.30;99.90
45685;DHT22;46836;48.388;16.210;2022-12-18T03:35:21;-4.30;99.90
45685;DHT22;46836;48.388;16.210;2022-12-18T03:37:49;-4.30;99.90
45685;DHT22;46836;48.388;16.210;2022-12-18T03:40:16;-4.30;99.90
45685;DHT22;46836;48.388;16.210;2022-12-18T03:43:14;-4.30;99.90
45685;DHT22;46836;48.388;16.210;2022-12-18T03:45:50;-4.30;99.90
45685;DHT22;46836;48.388;16.210;2022-12-18T03:48:31;-4.30;99.90
45685;DHT22;46836;48.388;16.210;2022-12-18T03:51:05;-4.30;99.90
45685;DHT22;46836;48.388;16.210;2022-12-18T03:53:47;-4.30;99.90
45685;DHT22;46836;48.388;16.210;2022-12-18T03:56:16;-4.30;99.90
45685;DHT22;46836;48.388;16.210;2022-12-18T03:58:46;-4.30;99.90
45685;DHT22;46836;48.388;16.210;2022-12-18T04:01:16;-4.40;99.90
45685;DHT22;46836;48.388;16.210;2022-12-18T04:03:46;-4.30;99.90
45685;DHT22;46836;48.388;16.210;2022-12-18T04:06:16;-4.30;99.90
45685;DHT22;46836;48.388;16.210;2022-12-18T04:08:45;-4.40;99.90
45685;DHT22;46836;48.388;16.210;2022-12-18T04:11:12;-4.40;99.90
45685;DHT22;46836;48.388;16.210;2022-12-18T04:13:39;-4.40;99.90
45685;DHT22;46836;48.388;16.210;2022-12-18T04:16:09;-4.40;99.90
45685;DHT22;46836;48.388;16.210;2022-12-18T04:18:36;-4.50;99.90
45685;DHT22;46836;48.388;16.210;2022-12-18T04:21:03;-4.50;99.90
45685;DHT22;46836;48.388;16.210;2022-12-18T04:23:30;-4.50;99.90
45685;DHT22;46836;48.388;16.210;2022-12-18T04:25:57;-4.70;99.90
45685;DHT22;46836;48.388;16.210;2022-12-18T04:28:24;-4.70;99.90
45685;DHT22;46836;48.388;16.210;2022-12-18T04:30:51;-4.70;99.90
45685;DHT22;46836;48.388;16.210;2022-12-18T04:33:18;-4.70;99.90
45685;DHT22;46836;48.388;16.210;2022-12-18T04:35:46;-4.70;99.90
45685;DHT22;46836;48.388;16.210;2022-12-18T04:38:13;-4.70;99.90
45685;DHT22;46836;48.388;16.210;2022-12-18T04:40:41;-4.70;99.90
45685;DHT22;46836;48.388;16.210;2022-12-18T04:43:08;-4.80;99.90
45685;DHT22;46836;48.388;16.210;2022-12-18T04:45:36;-4.80;99.90
45685;DHT22;46836;48.388;16.210;2022-12-18T04:48:04;-4.80;99.90
45685;DHT22;46836;48.388;16.210;2022-12-18T04:50:31;-4.90;99.90
45685;DHT22;46836;48.388;16.210;2022-12-18T04:52:58;-4.90;99.90
45685;DHT22;46836;48.388;16.210;2022-12-18T04:55:26;-4.90;99.90
45685;DHT22;46836;48.388;16.210;2022-12-18T04:57:53;-4.90;99.90
45685;DHT22;46836;48.388;16.210;2022-12-18T05:00:21;-4.90;99.90
45685;DHT22;46836;48.388;16.210;2022-12-18T05:02:48;-4.80;99.90
45685;DHT22;46836;48.388;16.210;2022-12-18T05:05:15;-4.90;99.90
45685;DHT22;46836;48.388;16.210;2022-12-18T05:07:42;-4.90;99.90
45685;DHT22;46836;48.388;16.210;2022-12-18T05:10:09;-4.90;99.90
45685;DHT22;46836;48.388;16.210;2022-12-18T05:12:36;-5.00;99.90
45685;DHT22;46836;48.388;16.210;2022-12-18T05:15:30;-4.90;99.90
45685;DHT22;46836;48.388;16.210;2022-12-18T05:17:58;-4.90;99.90
45685;DHT22;46836;48.388;16.210;2022-12-18T05:20:26;-4.90;99.90
45685;DHT22;46836;48.388;16.210;2022-12-18T05:22:54;-5.00;99.90
45685;DHT22;46836;48.388;16.210;2022-12-18T05:25:22;-5.00;99.90
45685;DHT22;46836;48.388;16.210;2022-12-18T05:27:49;-5.00;99.90
45685;DHT22;46836;48.388;16.210;2022-12-18T05:30:17;-5.00;99.90
45685;DHT22;46836;48.388;16.210;2022-12-18T05:32:44;-5.00;99.90
45685;DHT22;46836;48.388;16.210;2022-12-18T05:35:11;-5.10;99.90
45685;DHT22;46836;48.388;16.210;2022-12-18T05:37:38;-5.20;99.90
45685;DHT22;46836;48.388;16.210;2022-12-18T05:40:10;-5.20;99.90
45685;DHT22;46836;48.388;16.210;2022-12-18T05:42:37;-5.30;99.90
45685;DHT22;46836;48.388;16.210;2022-12-18T05:45:05;-5.30;99.90
45685;DHT22;46836;48.388;16.210;2022-12-18T05:47:32;-5.30;99.90
45685;DHT22;46836;48.388;16.210;2022-12-18T05:49:59;-5.30;99.90
45685;DHT22;46836;48.388;16.210;2022-12-18T05:52:26;-5.30;99.90
45685;DHT22;46836;48.388;16.210;2022-12-18T05:54:53;-5.30;99.90
45685;DHT22;46836;48.388;16.210;2022-12-18T05:57:20;-5.30;99.90
45685;DHT22;46836;48.388;16.210;2022-12-18T05:59:47;-5.30;99.90
45685;DHT22;46836;48.388;16.210;2022-12-18T06:02:14;-5.30;99.90
45685;DHT22;46836;48.388;16.210;2022-12-18T06:04:41;-5.30;99.90
45685;DHT22;46836;48.388;16.210;2022-12-18T06:07:08;-5.30;99.90
45685;DHT22;46836;48.388;16.210;2022-12-18T06:09:35;-5.30;99.90
45685;DHT22;46836;48.388;16.210;2022-12-18T06:12:02;-5.40;99.90
45685;DHT22;46836;48.388;16.210;2022-12-18T06:14:29;-5.50;99.90
45685;DHT22;46836;48.388;16.210;2022-12-18T06:16:56;-5.50;99.90
45685;DHT22;46836;48.388;16.210;2022-12-18T06:19:23;-5.60;99.90
45685;DHT22;46836;48.388;16.210;2022-12-18T06:21:50;-5.60;99.90
45685;DHT22;46836;48.388;16.210;2022-12-18T06:24:17;-5.60;99.90
45685;DHT22;46836;48.388;16.210;2022-12-18T06:26:44;-5.60;99.90
45685;DHT22;46836;48.388;16.210;2022-12-18T06:29:11;-5.60;99.90
45685;DHT22;46836;48.388;16.210;2022-12-18T06:31:38;-5.50;99.90
45685;DHT22;46836;48.388;16.210;2022-12-18T06:34:05;-5.50;99.90
45685;DHT22;46836;48.388;16.210;2022-12-18T06:36:32;-5.50;99.90
45685;DHT22;46836;48.388;16.210;2022-12-18T06:38:59;-5.50;99.90
45685;DHT22;46836;48.388;16.210;2022-12-18T06:41:27;-5.50;99.90
45685;DHT22;46836;48.388;16.210;2022-12-18T06:43:54;-5.50;99.90
45685;DHT22;46836;48.388;16.210;2022-12-18T06:46:25;-5.50;99.90
45685;DHT22;46836;48.388;16.210;2022-12-18T06:48:52;-5.50;99.90
45685;DHT22;46836;48.388;16.210;2022-12-18T06:51:21;-5.50;99.90
45685;DHT22;46836;48.388;16.210;2022-12-18T06:53:49;-5.50;99.90
45685;DHT22;46836;48.388;16.210;2022-12-18T06:56:16;-5.50;99.90
45685;DHT22;46836;48.388;16.210;2022-12-18T06:58:43;-5.40;99.90
45685;DHT22;46836;48.388;16.210;2022-12-18T07:01:11;-5.40;99.90
45685;DHT22;46836;48.388;16.210;2022-12-18T07:03:41;-5.40;99.90
45685;DHT22;46836;48.388;16.210;2022-12-18T07:06:14;-5.40;99.90
45685;DHT22;46836;48.388;16.210;2022-12-18T07:08:42;-5.50;99.90
45685;DHT22;46836;48.388;16.210;2022-12-18T07:11:09;-5.60;99.90
45685;DHT22;46836;48.388;16.210;2022-12-18T07:13:36;-5.60;99.90
45685;DHT22;46836;48.388;16.210;2022-12-18T07:16:08;-5.60;99.90
45685;DHT22;46836;48.388;16.210;2022-12-18T07:18:47;-5.60;99.90
45685;DHT22;46836;48.388;16.210;2022-12-18T07:21:17;-5.50;99.90
45685;DHT22;46836;48.388;16.210;2022-12-18T07:23:45;-5.50;99.90
45685;DHT22;46836;48.388;16.210;2022-12-18T07:26:16;-5.50;99.90
45685;DHT22;46836;48.388;16.210;2022-12-18T07:28:44;-5.50;99.90
45685;DHT22;46836;48.388;16.210;2022-12-18T07:31:16;-5.40;99.90
45685;DHT22;46836;48.388;16.210;2022-12-18T07:33:44;-5.40;99.90
45685;DHT22;46836;48.388;16.210;2022-12-18T07:36:11;-5.30;99.90
45685;DHT22;46836;48.388;16.210;2022-12-18T07:38:38;-5.30;99.90
45685;DHT22;46836;48.388;16.210;2022-12-18T07:41:08;-5.40;99.90
45685;DHT22;46836;48.388;16.210;2022-12-18T07:43:35;-5.50;99.90
45685;DHT22;46836;48.388;16.210;2022-12-18T07:46:04;-5.40;99.90
45685;DHT22;46836;48.388;16.210;2022-12-18T07:48:31;-5.40;99.90
45685;DHT22;46836;48.388;16.210;2022-12-18T07:51:03;-5.30;99.90
45685;DHT22;46836;48.388;16.210;2022-12-18T07:53:31;-5.30;99.90
45685;DHT22;46836;48.388;16.210;2022-12-18T07:56:01;-5.30;99.90
45685;DHT22;46836;48.388;16.210;2022-12-18T07:58:49;-5.30;99.90
45685;DHT22;46836;48.388;16.210;2022-12-18T08:01:16;-5.30;99.90
45685;DHT22;46836;48.388;16.210;2022-12-18T08:03:44;-5.20;99.90
45685;DHT22;46836;48.388;16.210;2022-12-18T08:06:11;-5.20;99.90
45685;DHT22;46836;48.388;16.210;2022-12-18T08:08:38;-5.20;99.90
45685;DHT22;46836;48.388;16.210;2022-12-18T08:11:08;-5.10;99.90
45685;DHT22;46836;48.388;16.210;2022-12-18T08:13:35;-5.10;99.90
45685;DHT22;46836;48.388;16.210;2022-12-18T08:16:05;-5.10;99.90
45685;DHT22;46836;48.388;16.210;2022-12-18T08:18:33;-5.00;99.90
45685;DHT22;46836;48.388;16.210;2022-12-18T08:21:14;-4.90;99.90
45685;DHT22;46836;48.388;16.210;2022-12-18T08:23:42;-4.90;99.90
45685;DHT22;46836;48.388;16.210;2022-12-18T08:26:11;-4.70;99.90
45685;DHT22;46836;48.388;16.210;2022-12-18T08:28:38;-4.60;99.90
45685;DHT22;46836;48.388;16.210;2022-12-18T08:31:07;-4.60;99.90
45685;DHT22;46836;48.388;16.210;2022-12-18T08:33:36;-4.60;99.90
45685;DHT22;46836;48.388;16.210;2022-12-18T08:36:06;-4.60;99.90
45685;DHT22;46836;48.388;16.210;2022-12-18T08:38:33;-4.50;99.90
45685;DHT22;46836;48.388;16.210;2022-12-18T08:41:02;-4.40;99.90
45685;DHT22;46836;48.388;16.210;2022-12-18T08:43:29;-4.30;99.90
45685;DHT22;46836;48.388;16.210;2022-12-18T08:46:15;-4.20;99.90
45685;DHT22;46836;48.388;16.210;2022-12-18T08:48:43;-4.20;99.90
45685;DHT22;46836;48.388;16.210;2022-12-18T08:51:10;-4.10;99.90
45685;DHT22;46836;48.388;16.210;2022-12-18T08:53:37;-4.10;99.90
45685;DHT22;46836;48.388;16.210;2022-12-18T08:56:05;-4.10;99.90
45685;DHT22;46836;48.388;16.210;2022-12-18T08:58:32;-4.00;99.90
45685;DHT22;46836;48.388;16.210;2022-12-18T09:01:05;-3.90;99.90
45685;DHT22;46836;48.388;16.210;2022-12-18T09:03:32;-3.80;99.90
45685;DHT22;46836;48.388;16.210;2022-12-18T09:05:59;-3.70;99.90
45685;DHT22;46836;48.388;16.210;2022-12-18T09:08:27;-3.60;99.90
45685;DHT22;46836;48.388;16.210;2022-12-18T09:10:54;-3.50;99.90
45685;DHT22;46836;48.388;16.210;2022-12-18T09:13:22;-3.50;99.90
45685;DHT22;46836;48.388;16.210;2022-12-18T09:15:52;-3.40;99.90
45685;DHT22;46836;48.388;16.210;2022-12-18T09:18:21;-3.40;99.90
45685;DHT22;46836;48.388;16.210;2022-12-18T09:20:49;-3.40;99.90
45685;DHT22;46836;48.388;16.210;2022-12-18T09:23:20;-3.30;99.90
45685;DHT22;46836;48.388;16.210;2022-12-18T09:25:48;-3.20;99.90
45685;DHT22;46836;48.388;16.210;2022-12-18T09:28:18;-3.10;99.90
45685;DHT22;46836;48.388;16.210;2022-12-18T09:30:48;-3.10;99.90
45685;DHT22;46836;48.388;16.210;2022-12-18T09:33:16;-3.00;99.90
45685;DHT22;46836;48.388;16.210;2022-12-18T09:35:44;-3.00;99.90
45685;DHT22;46836;48.388;16.210;2022-12-18T09:38:15;-2.90;99.90
45685;DHT22;46836;48.388;16.210;2022-12-18T09:40:48;-2.90;99.90
45685;DHT22;46836;48.388;16.210;2022-12-18T09:43:25;-2.80;99.90
45685;DHT22;46836;48.388;16.210;2022-12-18T09:46:01;-2.70;99.90
45685;DHT22;46836;48.388;16.210;2022-12-18T09:48:35;-2.60;99.90
45685;DHT22;46836;48.388;16.210;2022-12-18T09:53:41;-2.40;99.90
45685;DHT22;46836;48.388;16.210;2022-12-18T09:56:18;-2.20;99.90
45685;DHT22;46836;48.388;16.210;2022-12-18T09:59:01;-2.20;99.90
45685;DHT22;46836;48.388;16.210;2022-12-18T10:01:29;-2.10;99.90
45685;DHT22;46836;48.388;16.210;2022-12-18T10:04:09;-2.10;99.90
45685;DHT22;46836;48.388;16.210;2022-12-18T10:06:46;-2.00;99.90
45685;DHT22;46836;48.388;16.210;2022-12-18T10:09:37;-1.80;99.90
45685;DHT22;46836;48.388;16.210;2022-12-18T10:12:35;-1.70;99.90
45685;DHT22;46836;48.388;16.210;2022-12-18T10:15:25;-1.60;99.90
45685;DHT22;46836;48.388;16.210;2022-12-18T10:21:17;-1.50;99.90
45685;DHT22;46836;48.388;16.210;2022-12-18T10:26:37;-1.20;99.90
45685;DHT22;46836;48.388;16.210;2022-12-18T10:29:12;-1.20;99.90
45685;DHT22;46836;48.388;16.210;2022-12-18T10:31:39;-1.20;99.90
45685;DHT22;46836;48.388;16.210;2022-12-18T10:34:12;-1.20;99.90
45685;DHT22;46836;48.388;16.210;2022-12-18T10:36:40;-1.20;99.90
45685;DHT22;46836;48.388;16.210;2022-12-18T10:39:23;-1.00;99.90
45685;DHT22;46836;48.388;16.210;2022-12-18T10:41:50;-0.90;99.90
45685;DHT22;46836;48.388;16.210;2022-12-18T10:44:23;-0.80;99.90
45685;DHT22;46836;48.388;16.210;2022-12-18T10:46:54;-0.80;99.90
45685;DHT22;46836;48.388;16.210;2022-12-18T10:49:31;-0.70;99.90
45685;DHT22;46836;48.388;16.210;2022-12-18T10:52:23;-0.70;99.90
45685;DHT22;46836;48.388;16.210;2022-12-18T10:54:54;-0.60;99.90
45685;DHT22;46836;48.388;16.210;2022-12-18T10:59:59;-0.60;99.90
45685;DHT22;46836;48.388;16.210;2022-12-18T11:02:35;-0.50;99.90
45685;DHT22;46836;48.388;16.210;2022-12-18T11:05:27;-0.50;99.90
45685;DHT22;46836;48.388;16.210;2022-12-18T11:07:56;-0.50;99.90
45685;DHT22;46836;48.388;16.210;2022-12-18T11:10:36;-0.50;99.90
45685;DHT22;46836;48.388;16.210;2022-12-18T11:13:14;-0.50;99.90
45685;DHT22;46836;48.388;16.210;2022-12-18T11:15:44;-0.60;99.90
45685;DHT22;46836;48.388;16.210;2022-12-18T11:20:56;-0.60;99.90
45685;DHT22;46836;48.388;16.210;2022-12-18T11:23:25;-0.60;99.90
45685;DHT22;46836;48.388;16.210;2022-12-18T11:25:57;-0.60;99.90
45685;DHT22;46836;48.388;16.210;2022-12-18T11:28:44;-0.50;99.90
45685;DHT22;46836;48.388;16.210;2022-12-18T11:34:02;-0.60;99.90
45685;DHT22;46836;48.388;16.210;2022-12-18T11:36:51;-0.60;99.90
45685;DHT22;46836;48.388;16.210;2022-12-18T11:39:38;-0.50;99.90
45685;DHT22;46836;48.388;16.210;2022-12-18T11:42:17;-0.50;99.90
45685;DHT22;46836;48.388;16.210;2022-12-18T11:48:17;-0.50;99.90
45685;DHT22;46836;48.388;16.210;2022-12-18T11:50:56;-0.60;99.90
45685;DHT22;46836;48.388;16.210;2022-12-18T11:53:26;-0.60;99.90
45685;DHT22;46836;48.388;16.210;2022-12-18T11:56:18;-0.60;99.90
45685;DHT22;46836;48.388;16.210;2022-12-18T12:01:50;-0.70;99.90
45685;DHT22;46836;48.388;16.210;2022-12-18T12:07:27;-0.60;99.90
45685;DHT22;46836;48.388;16.210;2022-12-18T12:31:24;-0.90;99.90
45685;DHT22;46836;48.388;16.210;2022-12-18T12:34:00;-0.80;99.90
45685;DHT22;46836;48.388;16.210;2022-12-18T12:39:30;-0.80;99.90
45685;DHT22;46836;48.388;16.210;2022-12-18T12:41:59;-0.80;99.90
45685;DHT22;46836;48.388;16.210;2022-12-18T12:44:47;-0.90;99.90
45685;DHT22;46836;48.388;16.210;2022-12-18T12:47:33;-0.90;99.90
45685;DHT22;46836;48.388;16.210;2022-12-18T12:50:05;-0.80;99.90
45685;DHT22;46836;48.388;16.210;2022-12-18T12:52:53;-0.90;99.90
45685;DHT22;46836;48.388;16.210;2022-12-18T12:55:26;-0.90;99.90
45685;DHT22;46836;48.388;16.210;2022-12-18T12:58:06;-0.90;99.90
45685;DHT22;46836;48.388;16.210;2022-12-18T13:01:08;-0.90;99.90
45685;DHT22;46836;48.388;16.210;2022-12-18T13:09:01;-0.90;99.90
45685;DHT22;46836;48.388;16.210;2022-12-18T13:20:11;-1.00;99.90
45685;DHT22;46836;48.388;16.210;2022-12-18T13:22:49;-1.00;99.90
45685;DHT22;46836;48.388;16.210;2022-12-18T13:25:35;-1.00;99.90
45685;DHT22;46836;48.388;16.210;2022-12-18T13:28:12;-1.00;99.90
45685;DHT22;46836;48.388;16.210;2022-12-18T13:38:38;-1.10;99.90
45685;DHT22;46836;48.388;16.210;2022-12-18T13:43:47;-1.10;99.90
45685;DHT22;46836;48.388;16.210;2022-12-18T13:49:05;-1.00;99.90
45685;DHT22;46836;48.388;16.210;2022-12-18T13:51:34;-1.10;99.90
45685;DHT22;46836;48.388;16.210;2022-12-18T13:56:55;-1.10;99.90
45685;DHT22;46836;48.388;16.210;2022-12-18T13:59:24;-1.10;99.90
45685;DHT22;46836;48.388;16.210;2022-12-18T14:02:00;-1.10;99.90
45685;DHT22;46836;48.388;16.210;2022-12-18T14:04:33;-1.10;99.90
45685;DHT22;46836;48.388;16.210;2022-12-18T14:07:04;-1.10;99.90
45685;DHT22;46836;48.388;16.210;2022-12-18T14:09:40;-1.10;99.90
45685;DHT22;46836;48.388;16.210;2022-12-18T14:12:21;-1.10;99.90
45685;DHT22;46836;48.388;16.210;2022-12-18T14:15:23;-1.10;99.90
45685;DHT22;46836;48.388;16.210;2022-12-18T14:20:51;-1.00;99.90
45685;DHT22;46836;48.388;16.210;2022-12-18T14:23:32;-0.90;99.90
45685;DHT22;46836;48.388;16.210;2022-12-18T14:26:02;-1.00;99.90
45685;DHT22;46836;48.388;16.210;2022-12-18T14:28:32;-1.00;99.90
45685;DHT22;46836;48.388;16.210;2022-12-18T14:30:59;-0.90;99.90
45685;DHT22;46836;48.388;16.210;2022-12-18T14:33:27;-0.90;99.90
45685;DHT22;46836;48.388;16.210;2022-12-18T14:36:02;-0.90;99.90
45685;DHT22;46836;48.388;16.210;2022-12-18T14:38:37;-0.90;99.90
45685;DHT22;46836;48.388;16.210;2022-12-18T14:43:39;-0.90;99.90
45685;DHT22;46836;48.388;16.210;2022-12-18T14:46:32;-1.00;99.90
45685;DHT22;46836;48.388;16.210;2022-12-18T14:49:04;-0.90;99.90
45685;DHT22;46836;48.388;16.210;2022-12-18T14:51:33;-0.90;99.90
45685;DHT22;46836;48.388;16.210;2022-12-18T14:54:06;-0.90;99.90
45685;DHT22;46836;48.388;16.210;2022-12-18T14:56:48;-0.90;99.90
45685;DHT22;46836;48.388;16.210;2022-12-18T14:59:19;-0.90;99.90
45685;DHT22;46836;48.388;16.210;2022-12-18T15:04:41;-1.00;99.90
45685;DHT22;46836;48.388;16.210;2022-12-18T15:09:40;-1.00;99.90
45685;DHT22;46836;48.388;16.210;2022-12-18T15:12:45;-1.00;99.90
45685;DHT22;46836;48.388;16.210;2022-12-18T15:23:19;-0.90;99.90
45685;DHT22;46836;48.388;16.210;2022-12-18T15:25:54;-0.90;99.90
45685;DHT22;46836;48.388;16.210;2022-12-18T15:28:43;-0.90;99.90
45685;DHT22;46836;48.388;16.210;2022-12-18T15:36:22;-0.90;99.90
45685;DHT22;46836;48.388;16.210;2022-12-18T15:38:54;-0.80;99.90
45685;DHT22;46836;48.388;16.210;2022-12-18T15:41:33;-0.80;99.90
45685;DHT22;46836;48.388;16.210;2022-12-18T15:44:03;-0.90;99.90
45685;DHT22;46836;48.388;16.210;2022-12-18T15:46:43;-0.90;99.90
45685;DHT22;46836;48.388;16.210;2022-12-18T15:49:10;-0.90;99.90
45685;DHT22;46836;48.388;16.210;2022-12-18T15:51:39;-0.80;99.90
45685;DHT22;46836;48.388;16.210;2022-12-18T15:54:12;-0.90;99.90
45685;DHT22;46836;48.388;16.210;2022-12-18T15:56:42;-0.80;99.90
45685;DHT22;46836;48.388;16.210;2022-12-18T15:59:28;-0.90;99.90
45685;DHT22;46836;48.388;16.210;2022-12-18T16:01:56;-0.80;99.90
45685;DHT22;46836;48.388;16.210;2022-12-18T16:04:26;-0.80;99.90
45685;DHT22;46836;48.388;16.210;2022-12-18T16:06:54;-0.80;99.90
45685;DHT22;46836;48.388;16.210;2022-12-18T16:09:40;-0.70;99.90
45685;DHT22;46836;48.388;16.210;2022-12-18T16:12:23;-0.70;99.90
45685;DHT22;46836;48.388;16.210;2022-12-18T16:14:52;-0.70;99.90
45685;DHT22;46836;48.388;16.210;2022-12-18T16:17:20;-0.70;99.90
45685;DHT22;46836;48.388;16.210;2022-12-18T16:19:48;-0.70;99.90
45685;DHT22;46836;48.388;16.210;2022-12-18T16:22:27;-0.70;99.90
45685;DHT22;46836;48.388;16.210;2022-12-18T16:24:57;-0.70;99.90
45685;DHT22;46836;48.388;16.210;2022-12-18T16:27:25;-0.70;99.90
45685;DHT22;46836;48.388;16.210;2022-12-18T16:29:53;-0.70;99.90
45685;DHT22;46836;48.388;16.210;2022-12-18T16:32:22;-0.70;99.90
45685;DHT22;46836;48.388;16.210;2022-12-18T16:34:50;-0.70;99.90
45685;DHT22;46836;48.388;16.210;2022-12-18T16:37:17;-0.70;99.90
45685;DHT22;46836;48.388;16.210;2022-12-18T16:39:45;-0.70;99.90
45685;DHT22;46836;48.388;16.210;2022-12-18T16:42:16;-0.80;99.90
45685;DHT22;46836;48.388;16.210;2022-12-18T16:44:48;-0.90;99.90
45685;DHT22;46836;48.388;16.210;2022-12-18T16:47:17;-1.00;99.90
45685;DHT22;46836;48.388;16.210;2022-12-18T16:49:45;-1.00;99.90
45685;DHT22;46836;48.388;16.210;2022-12-18T16:52:15;-0.90;99.90
45685;DHT22;46836;48.388;16.210;2022-12-18T16:54:44;-0.90;99.90
45685;DHT22;46836;48.388;16.210;2022-12-18T16:57:14;-0.90;99.90
45685;DHT22;46836;48.388;16.210;2022-12-18T16:59:43;-0.80;99.90
45685;DHT22;46836;48.388;16.210;2022-12-18T17:02:18;-0.80;99.90
45685;DHT22;46836;48.388;16.210;2022-12-18T17:04:49;-0.80;99.90
45685;DHT22;46836;48.388;16.210;2022-12-18T17:07:19;-0.80;99.90
45685;DHT22;46836;48.388;16.210;2022-12-18T17:09:47;-0.80;99.90
45685;DHT22;46836;48.388;16.210;2022-12-18T17:12:16;-0.80;99.90
45685;DHT22;46836;48.388;16.210;2022-12-18T17:14:50;-0.70;99.90
45685;DHT22;46836;48.388;16.210;2022-12-18T17:17:19;-0.70;99.90
45685;DHT22;46836;48.388;16.210;2022-12-18T17:19:50;-0.70;99.90
45685;DHT22;46836;48.388;16.210;2022-12-18T17:22:19;-0.70;99.90
45685;DHT22;46836;48.388;16.210;2022-12-18T17:24:47;-0.70;99.90
45685;DHT22;46836;48.388;16.210;2022-12-18T17:27:15;-0.70;99.90
45685;DHT22;46836;48.388;16.210;2022-12-18T17:29:43;-0.70;99.90
45685;DHT22;46836;48.388;16.210;2022-12-18T17:32:15;-0.70;99.90
45685;DHT22;46836;48.388;16.210;2022-12-18T17:34:45;-0.70;99.90
45685;DHT22;46836;48.388;16.210;2022-12-18T17:37:13;-0.70;99.90
45685;DHT22;46836;48.388;16.210;2022-12-18T17:39:42;-0.70;99.90